createdAt,value
2019-02-10T00:03:01.758Z,92.70
2019-02-10T00:07:01.503Z,92.70
2019-02-10T00:11:01.561Z,92.90
2019-02-10T00:15:01.618Z,92.70
2019-02-10T00:19:01.841Z,92.80
2019-02-10T00:23:01.497Z,92.70
2019-02-10T00:27:01.542Z,92.80
2019-02-10T00:31:01.594Z,92.80
2019-02-10T00:35:01.505Z,92.70
2019-02-10T00:39:01.551Z,92.90
2019-02-10T00:43:01.630Z,92.80
2019-02-10T00:47:01.715Z,93.00
2019-02-10T00:51:01.758Z,93.20
2019-02-10T00:55:01.526Z,93.20
2019-02-10T00:59:02.275Z,93.30
2019-02-10T01:03:01.607Z,93.30
2019-02-10T01:07:01.514Z,93.50
2019-02-10T01:11:01.558Z,93.50
2019-02-10T01:15:01.613Z,93.50
2019-02-10T01:19:05.843Z,93.50
2019-02-10T01:23:04.959Z,93.50
2019-02-10T01:27:04.156Z,93.50
2019-02-10T01:31:03.282Z,93.50
2019-02-10T01:35:02.433Z,93.50
2019-02-10T01:39:01.807Z,93.30
2019-02-10T01:43:02.379Z,93.20
2019-02-10T01:47:01.589Z,93.20
2019-02-10T01:51:01.639Z,93.00
2019-02-10T01:55:01.681Z,93.00
2019-02-10T01:59:01.546Z,92.60
2019-02-10T02:03:01.590Z,92.70
2019-02-10T02:07:01.651Z,92.90
2019-02-10T02:11:01.763Z,93.00
2019-02-10T02:15:01.684Z,93.10
2019-02-10T02:19:01.604Z,93.10
2019-02-10T02:23:01.638Z,93.20
2019-02-10T02:27:01.690Z,93.20
2019-02-10T02:31:01.559Z,93.20
2019-02-10T02:35:01.619Z,93.10
2019-02-10T02:39:01.700Z,93.10
2019-02-10T02:43:02.490Z,93.30
2019-02-10T02:47:01.612Z,93.40
2019-02-10T02:51:01.646Z,93.40
2019-02-10T02:55:01.572Z,93.20
2019-02-10T02:59:01.598Z,93.30
2019-02-10T03:03:02.552Z,93.00
2019-02-10T03:07:01.678Z,93.20
2019-02-10T03:11:01.719Z,93.50
2019-02-10T03:15:01.753Z,93.50
2019-02-10T03:19:01.598Z,93.50
2019-02-10T03:23:01.647Z,93.50
2019-02-10T03:27:01.690Z,93.60
2019-02-10T03:31:01.607Z,93.70
2019-02-10T03:35:01.635Z,93.70
2019-02-10T03:39:01.679Z,94.00
2019-02-10T03:43:02.065Z,94.00
2019-02-10T03:47:01.612Z,94.10
2019-02-10T03:51:02.078Z,93.90
2019-02-10T03:55:01.659Z,94.20
2019-02-10T03:59:01.709Z,94.30
2019-02-10T04:03:01.773Z,94.30
2019-02-10T04:07:01.656Z,94.20
2019-02-10T04:11:01.717Z,94.20
2019-02-10T04:15:01.749Z,94.30
2019-02-10T04:19:01.625Z,94.30
2019-02-10T04:23:01.678Z,94.30
2019-02-10T04:27:01.718Z,94.40
2019-02-10T04:31:01.757Z,94.60
2019-02-10T04:35:01.948Z,94.70
2019-02-10T04:39:01.790Z,95.10
2019-02-10T04:43:02.545Z,94.80
2019-02-10T04:47:01.726Z,94.90
2019-02-10T04:51:01.781Z,95.20
2019-02-10T04:55:01.666Z,95.70
2019-02-10T04:59:01.718Z,96.00
2019-02-10T05:03:01.817Z,95.90
2019-02-10T05:07:01.966Z,95.90
2019-02-10T05:11:01.885Z,95.80
2019-02-10T05:15:01.829Z,95.90
2019-02-10T05:19:01.703Z,96.30
2019-02-10T05:23:01.820Z,96.00
2019-02-10T05:27:01.836Z,96.00
2019-02-10T05:31:01.719Z,96.10
2019-02-10T05:35:01.961Z,96.00
2019-02-10T05:39:01.794Z,96.00
2019-02-10T05:43:01.988Z,96.00
2019-02-10T05:47:01.737Z,95.90
2019-02-10T05:51:01.761Z,95.80
2019-02-10T05:55:01.667Z,95.80
2019-02-10T05:59:01.710Z,96.00
2019-02-10T06:03:01.753Z,96.20
2019-02-10T06:07:13.815Z,96.00
2019-02-10T06:11:12.942Z,95.90
2019-02-10T06:15:12.058Z,95.70
2019-02-10T06:19:11.191Z,95.40
2019-02-10T06:23:10.288Z,95.30
2019-02-10T06:27:09.425Z,95.20
2019-02-10T06:31:08.560Z,95.10
2019-02-10T06:35:08.841Z,95.10
2019-02-10T06:39:07.957Z,95.10
2019-02-10T06:43:07.145Z,95.30
2019-02-10T06:47:06.269Z,95.50
2019-02-10T06:51:05.420Z,95.10
2019-02-10T06:55:06.874Z,95.30
2019-02-10T06:59:07.637Z,95.30
2019-02-10T07:03:35.337Z,95.40
2019-02-10T07:07:34.441Z,95.30
2019-02-10T07:11:33.664Z,95.40
2019-02-10T07:16:01.957Z,95.80
2019-02-10T07:20:34.250Z,95.30
2019-02-10T07:24:36.767Z,95.30
2019-02-10T07:28:39.678Z,95.20
2019-02-10T07:32:44.614Z,95.20
2019-02-10T07:36:52.895Z,95.20
2019-02-10T07:41:21.928Z,95.20
2019-02-10T07:45:24.311Z,95.10
2019-02-10T07:49:44.486Z,95.30
2019-02-10T07:53:46.866Z,95.30
2019-02-10T07:57:57.849Z,95.20
2019-02-10T08:02:08.765Z,94.70
2019-02-10T08:06:35.463Z,94.30
2019-02-10T08:10:47.002Z,94.20
2019-02-10T08:14:55.482Z,94.00
2019-02-10T08:19:09.434Z,93.70
2019-02-10T08:23:14.413Z,93.80
2019-02-10T08:27:32.116Z,93.80
2019-02-10T08:32:06.268Z,93.80
2019-02-10T08:36:17.662Z,93.60
2019-02-10T08:40:22.793Z,93.70
2019-02-10T08:44:25.173Z,93.90
2019-02-10T08:48:46.882Z,93.40
2019-02-10T08:52:55.082Z,93.00
2019-02-10T08:56:54.190Z,92.30
2019-02-10T09:00:53.327Z,92.10
2019-02-10T09:04:52.535Z,91.30
2019-02-10T09:08:51.661Z,91.20
2019-02-10T09:12:50.792Z,89.70
2019-02-10T09:16:49.902Z,88.20
2019-02-10T09:20:49.017Z,87.40
2019-02-10T09:24:48.129Z,87.50
2019-02-10T09:28:47.239Z,88.90
2019-02-10T09:32:46.370Z,90.60
2019-02-10T09:36:45.494Z,91.60
2019-02-10T09:40:44.620Z,92.10
2019-02-10T09:44:43.717Z,92.50
2019-02-10T09:48:42.834Z,93.50
2019-02-10T09:52:41.974Z,93.90
2019-02-10T09:56:41.087Z,94.20
2019-02-10T10:00:40.193Z,94.10
2019-02-10T10:04:39.322Z,94.00
2019-02-10T10:08:38.477Z,94.00
2019-02-10T10:12:37.589Z,94.30
2019-02-10T10:16:36.862Z,94.30
2019-02-10T10:20:35.967Z,94.60
2019-02-10T10:24:35.088Z,94.40
2019-02-10T10:28:34.213Z,94.10
2019-02-10T10:32:33.331Z,93.60
2019-02-10T10:36:32.453Z,93.60
2019-02-10T10:40:32.558Z,93.10
2019-02-10T10:44:31.662Z,92.50
2019-02-10T10:48:30.782Z,92.10
2019-02-10T10:52:29.890Z,91.40
2019-02-10T10:56:29.078Z,91.60
2019-02-10T11:00:29.159Z,90.80
2019-02-10T11:04:28.287Z,90.40
2019-02-10T11:08:27.418Z,89.60
2019-02-10T11:12:26.533Z,88.20
2019-02-10T11:16:25.649Z,88.40
2019-02-10T11:20:24.766Z,87.30
2019-02-10T11:24:28.554Z,85.70
2019-02-10T11:28:25.674Z,83.90
2019-02-10T11:32:24.801Z,82.60
2019-02-10T11:36:23.934Z,81.90
2019-02-10T11:40:23.061Z,80.90
2019-02-10T11:44:22.180Z,83.20
2019-02-10T11:48:21.294Z,82.00
2019-02-10T11:52:20.417Z,82.90
2019-02-10T11:56:19.524Z,82.70
2019-02-10T12:00:18.657Z,80.90
2019-02-10T12:04:17.792Z,80.00
2019-02-10T12:08:16.913Z,80.00
2019-02-10T12:12:16.020Z,81.90
2019-02-10T12:16:15.140Z,80.10
2019-02-10T12:20:14.611Z,80.30
2019-02-10T12:24:13.725Z,78.10
2019-02-10T12:28:12.838Z,76.70
2019-02-10T12:32:12.025Z,75.20
2019-02-10T12:36:11.252Z,75.00
2019-02-10T12:40:11.501Z,72.20
2019-02-10T12:44:10.615Z,73.60
2019-02-10T12:48:09.740Z,72.70
2019-02-10T12:52:08.859Z,70.10
2019-02-10T12:56:08.018Z,72.80
2019-02-10T13:00:13.030Z,68.90
2019-02-10T13:04:12.168Z,68.20
2019-02-10T13:08:11.283Z,68.90
2019-02-10T13:12:11.306Z,68.50
2019-02-10T13:16:10.438Z,68.70
2019-02-10T13:20:13.517Z,69.30
2019-02-10T13:24:13.763Z,70.90
2019-02-10T13:28:12.881Z,72.00
2019-02-10T13:32:12.020Z,72.60
2019-02-10T13:36:11.142Z,69.60
2019-02-10T13:40:19.389Z,66.60
2019-02-10T13:44:18.825Z,63.50
2019-02-10T13:48:17.993Z,62.50
2019-02-10T13:52:18.085Z,60.60
2019-02-10T13:56:18.186Z,59.30
2019-02-10T14:00:24.819Z,57.00
2019-02-10T14:04:23.931Z,56.80
2019-02-10T14:08:23.069Z,56.40
2019-02-10T14:12:22.264Z,55.30
2019-02-10T14:16:21.390Z,55.60
2019-02-10T14:20:21.475Z,55.60
2019-02-10T14:24:20.586Z,54.50
2019-02-10T14:28:19.735Z,53.70
2019-02-10T14:32:18.845Z,52.70
2019-02-10T14:36:18.037Z,53.00
2019-02-10T14:40:17.247Z,52.30
2019-02-10T14:44:16.350Z,53.60
2019-02-10T14:48:15.466Z,51.90
2019-02-10T14:52:14.630Z,52.80
2019-02-10T14:56:13.768Z,52.30
2019-02-10T15:00:14.686Z,52.90
2019-02-10T15:04:13.860Z,51.70
2019-02-10T15:08:12.985Z,52.40
2019-02-10T15:12:12.095Z,53.50
2019-02-10T15:16:11.291Z,53.20
2019-02-10T15:20:11.685Z,55.40
2019-02-10T15:24:11.829Z,58.30
2019-02-10T15:28:10.981Z,65.60
2019-02-10T15:32:16.675Z,70.30
2019-02-10T15:36:10.942Z,74.40
2019-02-10T15:40:13.337Z,77.90
2019-02-10T15:44:12.461Z,81.40
2019-02-10T15:48:11.568Z,83.50
2019-02-10T15:52:10.686Z,86.40
2019-02-10T15:56:09.800Z,87.90
2019-02-10T16:00:12.299Z,87.10
2019-02-10T16:04:11.421Z,87.90
2019-02-10T16:08:10.582Z,89.30
2019-02-10T16:12:09.693Z,90.30
2019-02-10T16:16:08.813Z,90.50
2019-02-10T16:20:10.892Z,91.00
2019-02-10T16:24:11.080Z,92.20
2019-02-10T16:28:10.197Z,91.60
2019-02-10T16:32:09.538Z,92.10
2019-02-10T16:36:08.781Z,92.20
2019-02-10T16:40:13.755Z,92.70
2019-02-10T16:44:13.818Z,93.10
2019-02-10T16:48:12.954Z,93.30
2019-02-10T16:52:12.116Z,93.30
2019-02-10T16:56:11.251Z,93.00
2019-02-10T17:00:15.371Z,93.00
2019-02-10T17:04:14.587Z,93.50
2019-02-10T17:08:13.717Z,93.50
2019-02-10T17:12:12.821Z,93.80
2019-02-10T17:16:11.945Z,93.60
2019-02-10T17:20:12.190Z,93.90
2019-02-10T17:24:11.344Z,93.30
2019-02-10T17:28:10.550Z,93.20
2019-02-10T17:32:09.859Z,93.00
2019-02-10T17:36:08.965Z,92.80
2019-02-10T17:40:29.555Z,93.10
2019-02-10T17:44:28.686Z,92.90
2019-02-10T17:48:27.850Z,93.20
2019-02-10T17:52:31.860Z,92.50
2019-02-10T17:56:27.773Z,91.90
2019-02-10T18:00:28.558Z,92.10
2019-02-10T18:04:27.695Z,92.10
2019-02-10T18:08:26.817Z,92.10
2019-02-10T18:12:25.930Z,92.40
2019-02-10T18:16:26.695Z,92.90
2019-02-10T18:20:30.486Z,92.70
2019-02-10T18:24:34.233Z,92.80
2019-02-10T18:28:38.115Z,92.80
2019-02-10T18:32:50.731Z,92.80
2019-02-10T18:36:51.490Z,92.40
2019-02-10T18:41:01.605Z,92.40
2019-02-10T18:45:14.254Z,92.40
2019-02-10T18:49:17.973Z,92.30
2019-02-10T18:53:18.728Z,92.40
2019-02-10T18:57:35.730Z,92.20
2019-02-10T19:01:48.772Z,92.50
2019-02-10T19:05:49.531Z,92.30
2019-02-10T19:09:53.020Z,92.50
2019-02-10T19:13:59.558Z,92.30
2019-02-10T19:18:06.558Z,92.30
2019-02-10T19:22:07.325Z,91.90
2019-02-10T19:26:11.012Z,92.00
2019-02-10T19:30:27.738Z,91.90
2019-02-10T19:34:28.727Z,91.70
2019-02-10T19:38:29.530Z,91.10
2019-02-10T19:42:39.161Z,91.30
2019-02-10T19:46:54.933Z,91.20
2019-02-10T19:51:10.726Z,91.10
2019-02-10T19:55:28.037Z,90.50
2019-02-10T19:59:34.514Z,90.80
2019-02-10T20:03:51.774Z,90.80
2019-02-10T20:08:01.508Z,90.80
2019-02-10T20:12:14.453Z,90.90
2019-02-10T20:16:21.315Z,91.00
2019-02-10T20:20:31.127Z,91.10
2019-02-10T20:24:43.966Z,90.80
2019-02-10T20:28:56.741Z,90.80
2019-02-10T20:33:03.448Z,90.50
2019-02-10T20:37:19.272Z,90.40
2019-02-10T20:41:36.848Z,90.20
2019-02-10T20:45:40.343Z,90.20
2019-02-10T20:49:46.972Z,90.20
2019-02-10T20:53:59.796Z,89.20
2019-02-10T20:58:09.540Z,89.00
2019-02-10T21:02:16.558Z,88.50
2019-02-10T21:06:17.306Z,88.60
2019-02-10T21:10:37.389Z,86.90
2019-02-10T21:14:54.598Z,86.50
2019-02-10T21:18:55.366Z,85.90
2019-02-10T21:22:59.223Z,84.80
2019-02-10T21:27:12.126Z,84.60
2019-02-10T21:31:22.402Z,83.90
2019-02-10T21:35:39.597Z,85.30
2019-02-10T21:39:56.869Z,84.60
2019-02-10T21:44:00.586Z,84.00
2019-02-10T21:48:04.461Z,84.10
2019-02-10T21:52:03.591Z,83.20
2019-02-10T21:56:02.705Z,82.30
2019-02-10T22:00:02.326Z,83.50
2019-02-10T22:04:02.394Z,83.80
2019-02-10T22:08:02.472Z,83.00
2019-02-10T22:12:02.503Z,82.20
2019-02-10T22:16:02.460Z,83.10
2019-02-10T22:20:02.618Z,83.00
2019-02-10T22:24:02.470Z,83.00
2019-02-10T22:28:02.508Z,82.50
2019-02-10T22:32:02.486Z,83.30
2019-02-10T22:36:02.698Z,83.40
2019-02-10T22:40:02.454Z,82.70
2019-02-10T22:44:02.489Z,83.30
2019-02-10T22:48:02.348Z,84.10
2019-02-10T22:52:02.399Z,84.50
2019-02-10T22:56:02.513Z,84.80
2019-02-10T23:00:02.373Z,85.20
2019-02-10T23:04:02.462Z,85.40
2019-02-10T23:08:02.395Z,86.20
2019-02-10T23:12:02.438Z,86.30
2019-02-10T23:16:02.480Z,86.40
2019-02-10T23:20:02.394Z,86.50
2019-02-10T23:24:02.434Z,87.00
2019-02-10T23:28:02.458Z,86.80
2019-02-10T23:32:02.498Z,87.00
2019-02-10T23:36:02.406Z,87.80
2019-02-10T23:40:03.127Z,89.00
2019-02-10T23:44:02.467Z,88.50
2019-02-10T23:48:02.498Z,89.20
2019-02-10T23:52:02.606Z,88.70
2019-02-10T23:56:02.446Z,88.50
